SAS381 ENVA-ENGM
Flight info
| Callsign | SAS381 |
|---|---|
| Flight time | 0h 36m |
| Altitude | 31000 |
| Route | UTUNA DCT TUTBI DCT BELGU |
| Aircraft | B737/M-SDE2E3FGHIRWXY/LB1 |
Departure
| Time | 2026-05-07 17:05 |
|---|---|
| Airport | Trondheim Airport, Værnes (ENVA) |
Arrival
| Time | 2026-05-07 17:41 |
|---|---|
| Airport | Oslo-Gardermoen International Airport (ENGM) |
| Time | Latitude | Longitude | Altitude | Speed | Heading |
|---|---|---|---|---|---|
| 2026-05-07 16:45 | 63.45497 | 10.91907 | 38 ft | 0 kts | 180° |
| 2026-05-07 16:57 | 63.45498 | 10.91907 | 38 ft | 2 kts | 180° |
| 2026-05-07 16:58 | 63.45523 | 10.91907 | 35 ft | 4 kts | 180° |
| 2026-05-07 16:58 | 63.45543 | 10.91907 | 36 ft | 0 kts | 180° |
| 2026-05-07 17:00 | 63.45540 | 10.91909 | 38 ft | 1 kts | 166° |
| 2026-05-07 17:01 | 63.45548 | 10.91954 | 38 ft | 8 kts | 51° |
| 2026-05-07 17:01 | 63.45592 | 10.92097 | 39 ft | 12 kts | 71° |
| 2026-05-07 17:01 | 63.45595 | 10.92286 | 40 ft | 13 kts | 91° |
| 2026-05-07 17:01 | 63.45595 | 10.92503 | 41 ft | 15 kts | 89° |
| 2026-05-07 17:02 | 63.45596 | 10.92764 | 44 ft | 17 kts | 90° |
| 2026-05-07 17:02 | 63.45596 | 10.93022 | 48 ft | 16 kts | 89° |
| 2026-05-07 17:02 | 63.45597 | 10.93259 | 51 ft | 15 kts | 92° |
| 2026-05-07 17:02 | 63.45593 | 10.93484 | 55 ft | 14 kts | 90° |
| 2026-05-07 17:03 | 63.45592 | 10.93720 | 56 ft | 16 kts | 87° |
| 2026-05-07 17:03 | 63.45637 | 10.93930 | 56 ft | 15 kts | 44° |
| 2026-05-07 17:03 | 63.45712 | 10.94090 | 56 ft | 15 kts | 44° |
| 2026-05-07 17:03 | 63.45759 | 10.94067 | 58 ft | 10 kts | 270° |
| 2026-05-07 17:04 | 63.45759 | 10.93859 | 57 ft | 22 kts | 269° |
| 2026-05-07 17:04 | 63.45759 | 10.93006 | 47 ft | 93 kts | 270° |
| 2026-05-07 17:04 | 63.45757 | 10.91064 | 64 ft | 153 kts | 270° |
| 2026-05-07 17:04 | 63.45769 | 10.88564 | 594 ft | 164 kts | 269° |
| 2026-05-07 17:05 | 63.45767 | 10.85938 | 1384 ft | 174 kts | 270° |
| 2026-05-07 17:05 | 63.45765 | 10.83229 | 2353 ft | 179 kts | 271° |
| 2026-05-07 17:05 | 63.45527 | 10.80345 | 2865 ft | 211 kts | 240° |
| 2026-05-07 17:05 | 63.44304 | 10.78170 | 3282 ft | 249 kts | 199° |
| 2026-05-07 17:06 | 63.42545 | 10.77692 | 4321 ft | 259 kts | 185° |
| 2026-05-07 17:06 | 63.40739 | 10.77593 | 5546 ft | 260 kts | 184° |
| 2026-05-07 17:06 | 63.38918 | 10.77534 | 6679 ft | 263 kts | 184° |
| 2026-05-07 17:06 | 63.37075 | 10.77461 | 7735 ft | 267 kts | 184° |
| 2026-05-07 17:07 | 63.35214 | 10.77363 | 8945 ft | 269 kts | 184° |
| 2026-05-07 17:07 | 63.33330 | 10.77241 | 10198 ft | 272 kts | 184° |
| 2026-05-07 17:07 | 63.31418 | 10.77099 | 11047 ft | 290 kts | 184° |
| 2026-05-07 17:07 | 63.29304 | 10.76920 | 11618 ft | 313 kts | 185° |
| 2026-05-07 17:08 | 63.27098 | 10.76728 | 12644 ft | 321 kts | 185° |
| 2026-05-07 17:08 | 63.24850 | 10.76526 | 13755 ft | 326 kts | 186° |
| 2026-05-07 17:08 | 63.22562 | 10.76314 | 14695 ft | 332 kts | 186° |
| 2026-05-07 17:08 | 63.20226 | 10.76092 | 15552 ft | 339 kts | 187° |
| 2026-05-07 17:09 | 63.17848 | 10.75863 | 16430 ft | 346 kts | 187° |
| 2026-05-07 17:09 | 63.15421 | 10.75627 | 17294 ft | 352 kts | 188° |
| 2026-05-07 17:09 | 63.12950 | 10.75386 | 18128 ft | 358 kts | 188° |
| 2026-05-07 17:09 | 63.10475 | 10.75145 | 18853 ft | 364 kts | 189° |
| 2026-05-07 17:10 | 63.07933 | 10.74899 | 19605 ft | 367 kts | 189° |
| 2026-05-07 17:10 | 63.05371 | 10.74652 | 20363 ft | 370 kts | 189° |
| 2026-05-07 17:10 | 63.02784 | 10.74402 | 21075 ft | 374 kts | 190° |
| 2026-05-07 17:10 | 63.00174 | 10.74150 | 21744 ft | 378 kts | 190° |
| 2026-05-07 17:11 | 62.97531 | 10.73894 | 22418 ft | 382 kts | 191° |
| 2026-05-07 17:11 | 62.94866 | 10.73636 | 23057 ft | 386 kts | 191° |
| 2026-05-07 17:11 | 62.92168 | 10.73375 | 23677 ft | 390 kts | 191° |
| 2026-05-07 17:11 | 62.89443 | 10.73113 | 24185 ft | 394 kts | 191° |
| 2026-05-07 17:12 | 62.86696 | 10.72849 | 24688 ft | 397 kts | 191° |
| 2026-05-07 17:12 | 62.83968 | 10.72591 | 25210 ft | 398 kts | 191° |
| 2026-05-07 17:12 | 62.81202 | 10.72332 | 25821 ft | 397 kts | 192° |
| 2026-05-07 17:12 | 62.78443 | 10.72076 | 26476 ft | 396 kts | 192° |
| 2026-05-07 17:13 | 62.75692 | 10.71819 | 27117 ft | 396 kts | 192° |
| 2026-05-07 17:13 | 62.72944 | 10.71560 | 27756 ft | 395 kts | 192° |
| 2026-05-07 17:13 | 62.70195 | 10.71300 | 28358 ft | 394 kts | 192° |
| 2026-05-07 17:13 | 62.67462 | 10.71043 | 29066 ft | 393 kts | 192° |
| 2026-05-07 17:14 | 62.64735 | 10.70787 | 29749 ft | 392 kts | 193° |
| 2026-05-07 17:14 | 62.62008 | 10.70528 | 30382 ft | 392 kts | 193° |
| 2026-05-07 17:14 | 62.59326 | 10.70276 | 30953 ft | 390 kts | 192° |
| 2026-05-07 17:14 | 62.56600 | 10.70017 | 31089 ft | 394 kts | 192° |
| 2026-05-07 17:15 | 62.51174 | 10.69513 | 31109 ft | 388 kts | 192° |
| 2026-05-07 17:15 | 62.45767 | 10.69004 | 31110 ft | 390 kts | 192° |
| 2026-05-07 17:16 | 62.40329 | 10.68494 | 31058 ft | 391 kts | 192° |
| 2026-05-07 17:16 | 62.34938 | 10.67997 | 31099 ft | 391 kts | 192° |
| 2026-05-07 17:17 | 62.29512 | 10.67497 | 31101 ft | 389 kts | 192° |
| 2026-05-07 17:17 | 62.24104 | 10.66999 | 31096 ft | 389 kts | 192° |
| 2026-05-07 17:18 | 62.18703 | 10.66504 | 31112 ft | 388 kts | 192° |
| 2026-05-07 17:18 | 62.13333 | 10.66012 | 31093 ft | 388 kts | 192° |
| 2026-05-07 17:19 | 62.07945 | 10.65523 | 31082 ft | 386 kts | 192° |
| 2026-05-07 17:19 | 62.02578 | 10.65034 | 31102 ft | 386 kts | 192° |
| 2026-05-07 17:20 | 61.97205 | 10.64581 | 31085 ft | 387 kts | 192° |
| 2026-05-07 17:20 | 61.91676 | 10.64372 | 31099 ft | 414 kts | 186° |
| 2026-05-07 17:21 | 61.88757 | 10.64819 | 31113 ft | 427 kts | 184° |
| 2026-05-07 17:21 | 61.85801 | 10.65421 | 31110 ft | 438 kts | 183° |
| 2026-05-07 17:21 | 61.79597 | 10.66778 | 30838 ft | 458 kts | 183° |
| 2026-05-07 17:22 | 61.76432 | 10.67455 | 30402 ft | 455 kts | 183° |
| 2026-05-07 17:22 | 61.73296 | 10.68111 | 29861 ft | 449 kts | 183° |
| 2026-05-07 17:22 | 61.70225 | 10.68741 | 29439 ft | 439 kts | 183° |
| 2026-05-07 17:22 | 61.67231 | 10.69341 | 28783 ft | 427 kts | 183° |
| 2026-05-07 17:23 | 61.64286 | 10.69913 | 27737 ft | 425 kts | 183° |
| 2026-05-07 17:23 | 61.61332 | 10.70466 | 26853 ft | 427 kts | 183° |
| 2026-05-07 17:23 | 61.58383 | 10.71017 | 26192 ft | 424 kts | 183° |
| 2026-05-07 17:23 | 61.55496 | 10.71561 | 25610 ft | 420 kts | 183° |
| 2026-05-07 17:24 | 61.52601 | 10.72109 | 25035 ft | 416 kts | 183° |
| 2026-05-07 17:24 | 61.49731 | 10.72654 | 24450 ft | 412 kts | 182° |
| 2026-05-07 17:24 | 61.46892 | 10.73192 | 23906 ft | 407 kts | 182° |
| 2026-05-07 17:24 | 61.44084 | 10.73723 | 23310 ft | 403 kts | 182° |
| 2026-05-07 17:25 | 61.41306 | 10.74248 | 22709 ft | 399 kts | 182° |
| 2026-05-07 17:25 | 61.38561 | 10.74766 | 22164 ft | 393 kts | 182° |
| 2026-05-07 17:25 | 61.35858 | 10.75360 | 21707 ft | 389 kts | 177° |
| 2026-05-07 17:25 | 61.33228 | 10.76507 | 21458 ft | 384 kts | 174° |
| 2026-05-07 17:26 | 61.30632 | 10.77790 | 20938 ft | 381 kts | 173° |
| 2026-05-07 17:26 | 61.28107 | 10.79071 | 20448 ft | 378 kts | 173° |
| 2026-05-07 17:26 | 61.25555 | 10.80358 | 19912 ft | 376 kts | 173° |
| 2026-05-07 17:26 | 61.23018 | 10.81619 | 19386 ft | 373 kts | 173° |
| 2026-05-07 17:27 | 61.20501 | 10.82852 | 18872 ft | 370 kts | 173° |
| 2026-05-07 17:27 | 61.18003 | 10.84063 | 18355 ft | 368 kts | 172° |
| 2026-05-07 17:27 | 61.15522 | 10.85256 | 17773 ft | 365 kts | 172° |
| 2026-05-07 17:27 | 61.13055 | 10.86437 | 17211 ft | 362 kts | 172° |
| 2026-05-07 17:28 | 61.10616 | 10.87600 | 16702 ft | 358 kts | 172° |
| 2026-05-07 17:28 | 61.08206 | 10.88748 | 16164 ft | 354 kts | 172° |
| 2026-05-07 17:28 | 61.05842 | 10.89871 | 15663 ft | 351 kts | 172° |
| 2026-05-07 17:28 | 61.03472 | 10.90994 | 15151 ft | 348 kts | 171° |
| 2026-05-07 17:29 | 61.01121 | 10.92107 | 14644 ft | 345 kts | 171° |
| 2026-05-07 17:29 | 60.98784 | 10.93211 | 14141 ft | 343 kts | 171° |
| 2026-05-07 17:29 | 60.96465 | 10.94305 | 13598 ft | 341 kts | 171° |
| 2026-05-07 17:29 | 60.94169 | 10.95387 | 13045 ft | 338 kts | 170° |
| 2026-05-07 17:30 | 60.91889 | 10.96461 | 12539 ft | 334 kts | 170° |
| 2026-05-07 17:30 | 60.89636 | 10.97520 | 12030 ft | 331 kts | 170° |
| 2026-05-07 17:30 | 60.87400 | 10.98569 | 11510 ft | 328 kts | 170° |
| 2026-05-07 17:30 | 60.85185 | 10.99608 | 11015 ft | 325 kts | 170° |
| 2026-05-07 17:31 | 60.82984 | 11.00638 | 10528 ft | 323 kts | 170° |
| 2026-05-07 17:31 | 60.80841 | 11.01642 | 10392 ft | 309 kts | 169° |
| 2026-05-07 17:31 | 60.78807 | 11.02594 | 10238 ft | 297 kts | 169° |
| 2026-05-07 17:31 | 60.76803 | 11.03530 | 10110 ft | 286 kts | 170° |
| 2026-05-07 17:32 | 60.74917 | 11.04408 | 9821 ft | 281 kts | 170° |
| 2026-05-07 17:32 | 60.73031 | 11.05284 | 9534 ft | 275 kts | 170° |
| 2026-05-07 17:32 | 60.71156 | 11.06152 | 8987 ft | 279 kts | 169° |
| 2026-05-07 17:32 | 60.69895 | 11.06735 | 8668 ft | 280 kts | 169° |
| 2026-05-07 17:33 | 60.67363 | 11.07906 | 8157 ft | 277 kts | 169° |
| 2026-05-07 17:33 | 60.65492 | 11.08772 | 7840 ft | 273 kts | 169° |
| 2026-05-07 17:33 | 60.63660 | 11.09619 | 7567 ft | 268 kts | 169° |
| 2026-05-07 17:33 | 60.61849 | 11.10456 | 7178 ft | 266 kts | 169° |
| 2026-05-07 17:34 | 60.60050 | 11.11288 | 6759 ft | 264 kts | 168° |
| 2026-05-07 17:34 | 60.58265 | 11.12111 | 6431 ft | 261 kts | 169° |
| 2026-05-07 17:34 | 60.56502 | 11.12920 | 6170 ft | 256 kts | 168° |
| 2026-05-07 17:34 | 60.54829 | 11.13689 | 6088 ft | 244 kts | 168° |
| 2026-05-07 17:35 | 60.53207 | 11.14433 | 5964 ft | 235 kts | 168° |
| 2026-05-07 17:35 | 60.51619 | 11.15160 | 5710 ft | 233 kts | 168° |
| 2026-05-07 17:35 | 60.50043 | 11.15883 | 5405 ft | 232 kts | 167° |
| 2026-05-07 17:35 | 60.48472 | 11.16603 | 5107 ft | 231 kts | 167° |
| 2026-05-07 17:36 | 60.46904 | 11.17320 | 4815 ft | 231 kts | 167° |
| 2026-05-07 17:36 | 60.45345 | 11.18033 | 4525 ft | 229 kts | 167° |
| 2026-05-07 17:36 | 60.44318 | 11.18502 | 4330 ft | 228 kts | 167° |
| 2026-05-07 17:36 | 60.42263 | 11.19438 | 4041 ft | 229 kts | 167° |
| 2026-05-07 17:37 | 60.40699 | 11.20042 | 3998 ft | 231 kts | 179° |
| 2026-05-07 17:37 | 60.39165 | 11.19317 | 4016 ft | 225 kts | 200° |
| 2026-05-07 17:37 | 60.37700 | 11.18405 | 3963 ft | 215 kts | 195° |
| 2026-05-07 17:37 | 60.36281 | 11.17624 | 3729 ft | 209 kts | 195° |
| 2026-05-07 17:38 | 60.34903 | 11.16843 | 3458 ft | 204 kts | 196° |
| 2026-05-07 17:38 | 60.34002 | 11.16325 | 3278 ft | 201 kts | 196° |
| 2026-05-07 17:38 | 60.32667 | 11.15553 | 2996 ft | 200 kts | 196° |
| 2026-05-07 17:38 | 60.31333 | 11.14783 | 2726 ft | 200 kts | 196° |
| 2026-05-07 17:39 | 60.29590 | 11.13776 | 2353 ft | 191 kts | 196° |
| 2026-05-07 17:39 | 60.28358 | 11.13065 | 2093 ft | 177 kts | 195° |
| 2026-05-07 17:39 | 60.27242 | 11.12420 | 1886 ft | 157 kts | 195° |
| 2026-05-07 17:39 | 60.26250 | 11.11848 | 1647 ft | 140 kts | 195° |
| 2026-05-07 17:40 | 60.25642 | 11.11495 | 1484 ft | 138 kts | 196° |
| 2026-05-07 17:40 | 60.24699 | 11.10950 | 1248 ft | 140 kts | 195° |
| 2026-05-07 17:40 | 60.23776 | 11.10431 | 1106 ft | 137 kts | 196° |
| 2026-05-07 17:40 | 60.22850 | 11.09876 | 972 ft | 141 kts | 195° |
| 2026-05-07 17:41 | 60.21907 | 11.09349 | 787 ft | 139 kts | 196° |
| 2026-05-07 17:41 | 60.21013 | 11.08830 | 681 ft | 125 kts | 196° |
| 2026-05-07 17:41 | 60.20290 | 11.08407 | 676 ft | 88 kts | 196° |
| 2026-05-07 17:41 | 60.19955 | 11.08314 | 674 ft | 28 kts | 155° |
| 2026-05-07 17:42 | 60.19891 | 11.08461 | 673 ft | 0 kts | 107° |
| 2026-05-07 17:42 | 60.19878 | 11.08527 | 674 ft | 7 kts | 123° |
| 2026-05-07 17:43 | 60.19796 | 11.08517 | 676 ft | 19 kts | 195° |
| 2026-05-07 17:43 | 60.19665 | 11.08441 | 677 ft | 19 kts | 197° |
| 2026-05-07 17:43 | 60.19557 | 11.08435 | 676 ft | 17 kts | 137° |
| 2026-05-07 17:43 | 60.19518 | 11.08648 | 675 ft | 16 kts | 106° |
| 2026-05-07 17:44 | 60.19487 | 11.08861 | 683 ft | 15 kts | 106° |
| 2026-05-07 17:44 | 60.19459 | 11.09063 | 681 ft | 15 kts | 105° |
| 2026-05-07 17:44 | 60.19443 | 11.09233 | 684 ft | 10 kts | 65° |
| 2026-05-07 17:44 | 60.19488 | 11.09272 | 684 ft | 3 kts | 17° |
| 2026-05-07 17:45 | 60.19489 | 11.09273 | 684 ft | 0 kts | 17° |